Time;durP1;ratioP1;P1;durP2;ratioP2;P2;SDS_P1;SDS_P2;PMS_P1;PMS_P2;Temp;Humidity;BMP_temperature;BMP_pressure;BME280_temperature;BME280_humidity;BME280_pressure;Samples;Min_cycle;Max_cycle;Signal;HPM_P1;HPM_P2
2022/03/13 00:02:40;;;;;;;22.92;11.82;;;;;;;5.27;46.38;100405.09;20978061;28;20102;-66
2022/03/13 00:12:41;;;;;;;28.48;12.52;;;;;;;4.84;50.56;100410.00;20977168;28;20048;-65
2022/03/13 00:22:43;;;;;;;22.77;12.27;;;;;;;4.47;49.97;100423.50;20976935;28;20040;-66
2022/03/13 00:32:45;;;;;;;24.08;12.48;;;;;;;4.46;48.95;100404.50;20975933;28;20071;-66
2022/03/13 00:42:48;;;;;;;24.75;12.80;;;;;;;4.60;48.22;100399.44;20975300;28;20109;-66
2022/03/13 00:52:50;;;;;;;23.40;12.82;;;;;;;4.47;48.87;100406.22;20973977;28;20622;-65
2022/03/13 01:02:52;;;;;;;23.88;12.25;;;;;;;4.38;49.42;100407.00;20970335;28;20494;-65
2022/03/13 01:12:54;;;;;;;25.08;13.02;;;;;;;3.91;52.63;100401.31;20973038;28;20136;-66
2022/03/13 01:22:55;;;;;;;22.25;12.80;;;;;;;3.82;52.16;100407.25;20971971;28;20075;-66
2022/03/13 01:32:56;;;;;;;25.90;13.50;;;;;;;3.72;51.87;100405.41;20970051;28;20075;-65
2022/03/13 01:42:58;;;;;;;21.33;12.38;;;;;;;3.60;51.71;100397.53;20972140;28;20140;-66
2022/03/13 01:52:59;;;;;;;23.15;12.80;;;;;;;3.75;50.16;100397.69;20970574;28;20040;-65
2022/03/13 02:03:01;;;;;;;28.20;13.10;;;;;;;3.77;50.94;100397.69;20969297;28;20048;-66
2022/03/13 02:13:03;;;;;;;30.38;13.98;;;;;;;3.34;53.79;100395.44;20968726;28;20082;-67
2022/03/13 02:23:15;;;;;;;24.88;12.27;;;;;;;3.36;52.96;100392.03;20969472;28;20041;-66
2022/03/13 02:33:19;;;;;;;24.52;13.02;;;;;;;3.18;53.52;100395.22;20968392;28;20045;-66
2022/03/13 02:43:22;;;;;;;22.80;12.73;;;;;;;3.23;52.41;100390.97;20976745;28;20698;-66
2022/03/13 02:53:23;;;;;;;25.00;12.35;;;;;;;3.18;52.32;100385.75;20981114;28;20045;-66
2022/03/13 03:03:26;;;;;;;27.70;13.32;;;;;;;3.15;52.53;100380.50;20981479;28;20047;-66
2022/03/13 03:13:28;;;;;;;25.20;13.00;;;;;;;3.21;51.96;100370.28;20980838;28;20044;-66
2022/03/13 03:23:30;;;;;;;24.20;12.15;;;;;;;3.05;52.29;100365.72;20980197;28;20052;-65
2022/03/13 03:33:31;;;;;;;28.38;12.20;;;;;;;3.07;52.92;100361.44;20977768;28;20052;-65
2022/03/13 03:43:34;;;;;;;21.77;11.80;;;;;;;2.90;53.77;100368.09;20980207;28;20048;-65
2022/03/13 03:53:35;;;;;;;22.13;12.10;;;;;;;2.85;55.07;100395.59;20978231;28;20052;-66
2022/03/13 04:03:37;;;;;;;25.52;13.20;;;;;;;2.44;59.11;100398.38;20977963;28;21021;-66
2022/03/13 04:13:38;;;;;;;26.20;12.35;;;;;;;2.05;62.10;100392.50;20977685;28;20087;-66
2022/03/13 04:23:40;;;;;;;25.88;11.88;;;;;;;1.71;61.46;100397.88;20970236;28;20052;-66
2022/03/13 04:33:41;;;;;;;24.52;12.00;;;;;;;1.62;62.42;100398.56;20975499;28;20101;-66
2022/03/13 04:43:43;;;;;;;24.33;11.23;;;;;;;1.46;62.68;100396.50;20975635;28;20474;-65
2022/03/13 04:53:47;;;;;;;25.35;12.98;;;;;;;1.39;63.99;100410.09;20974279;28;20533;-65
2022/03/13 05:03:49;;;;;;;23.77;11.23;;;;;;;1.36;62.84;100428.97;20971459;28;20070;-66
2022/03/13 05:13:50;;;;;;;24.92;11.77;;;;;;;1.23;63.70;100427.84;20972493;28;20051;-65
2022/03/13 05:23:53;;;;;;;22.80;11.77;;;;;;;0.94;66.09;100422.00;20969657;28;20452;-65
2022/03/13 05:33:55;;;;;;;26.08;12.45;;;;;;;0.83;65.95;100438.94;20972017;28;20040;-65
2022/03/13 05:43:57;;;;;;;24.92;12.57;;;;;;;0.96;65.36;100445.28;20972274;28;20094;-65
2022/03/13 05:53:58;;;;;;;26.10;13.38;;;;;;;0.98;65.73;100465.06;20970340;28;20044;-66
2022/03/13 06:04:00;;;;;;;25.10;11.80;;;;;;;0.89;68.16;100484.59;20969619;28;20410;-66
2022/03/13 06:14:02;;;;;;;25.27;12.13;;;;;;;0.86;67.72;100482.81;20973278;28;20143;-66
2022/03/13 06:24:04;;;;;;;24.00;12.15;;;;;;;1.10;65.88;100471.34;20998271;28;20037;-65
2022/03/13 06:34:05;;;;;;;25.33;11.98;;;;;;;1.42;63.77;100495.31;20995568;28;20055;-65
2022/03/13 06:44:07;;;;;;;24.50;12.40;;;;;;;1.72;64.36;100501.16;20996225;28;20040;-66
2022/03/13 06:54:09;;;;;;;22.33;11.95;;;;;;;1.99;61.18;100503.44;20995818;28;20113;-66
2022/03/13 07:04:12;;;;;;;26.98;11.88;;;;;;;2.37;58.53;100503.34;20995889;28;20471;-65
2022/03/13 07:14:14;;;;;;;28.05;13.32;;;;;;;2.84;56.54;100500.75;20995691;28;20060;-66
2022/03/13 07:24:15;;;;;;;21.67;12.18;;;;;;;3.30;54.24;100510.09;20996397;28;20052;-67
2022/03/13 07:34:17;;;;;;;28.92;13.95;;;;;;;4.10;54.35;100480.13;20980647;28;20109;-66
2022/03/13 07:44:18;;;;;;;25.73;13.90;;;;;;;4.38;53.97;100470.94;20981584;28;20524;-67
2022/03/13 07:54:20;;;;;;;26.55;14.55;;;;;;;4.47;55.02;100478.81;20980515;28;20101;-65
2022/03/13 08:04:22;;;;;;;29.42;15.57;;;;;;;4.62;55.94;100454.75;20972591;28;20048;-66
2022/03/13 08:14:23;;;;;;;29.60;15.98;;;;;;;4.62;56.93;100459.94;20975360;28;20575;-66
2022/03/13 08:24:25;;;;;;;27.30;15.75;;;;;;;5.13;55.59;100489.78;20975436;28;20708;-66
2022/03/13 08:34:29;;;;;;;30.50;16.17;;;;;;;5.28;54.15;100469.13;20970616;28;20044;-66
2022/03/13 08:44:36;;;;;;;30.70;16.50;;;;;;;5.51;52.44;100482.28;20974278;28;20055;-66
2022/03/13 08:54:37;;;;;;;30.17;15.50;;;;;;;5.69;51.64;100470.22;20970046;28;20072;-66
2022/03/13 09:04:41;;;;;;;31.75;15.32;;;;;;;5.95;51.50;100457.41;20968220;28;20048;-66
2022/03/13 09:14:42;;;;;;;29.52;15.48;;;;;;;6.65;50.54;100457.56;20968467;28;20048;-65
2022/03/13 09:24:47;;;;;;;32.65;16.48;;;;;;;7.09;47.90;100469.72;20971861;28;20794;-65
2022/03/13 09:34:49;;;;;;;;;;;;;;;7.71;46.15;100458.31;20970247;28;20048;-68
2022/03/13 09:44:51;;;;;;;26.30;14.23;;;;;;;8.02;45.11;100440.84;20967436;28;20048;-66
2022/03/13 09:54:52;;;;;;;26.88;14.30;;;;;;;8.23;44.33;100445.94;20968557;28;20110;-69
2022/03/13 10:04:54;;;;;;;28.40;15.15;;;;;;;8.93;44.50;100428.97;20968291;28;20044;-67
2022/03/13 10:15:14;;;;;;;26.95;15.30;;;;;;;9.27;42.84;100412.13;20968922;28;20053;-68
2022/03/13 10:25:28;;;;;;;30.25;14.93;;;;;;;9.74;41.93;100411.59;20966900;28;20379;-68
2022/03/13 10:35:30;;;;;;;30.15;15.90;;;;;;;10.08;40.09;100398.94;20963282;28;20110;-64
2022/03/13 10:45:39;;;;;;;28.42;15.10;;;;;;;10.08;41.29;100395.47;20964628;28;20481;-63
2022/03/13 10:55:41;;;;;;;30.40;17.27;;;;;;;10.79;41.96;100381.31;20965333;28;20852;-62
2022/03/13 11:05:43;;;;;;;29.88;17.30;;;;;;;10.99;40.36;100380.09;20973672;28;20055;-62
2022/03/13 11:15:47;;;;;;;32.60;17.33;;;;;;;11.30;39.84;100360.25;20981582;28;20640;-62
2022/03/13 11:25:55;;;;;;;32.22;18.50;;;;;;;11.64;39.44;100350.84;20981219;28;20467;-63
2022/03/13 11:36:27;;;;;;;31.15;19.23;;;;;;;11.77;39.01;100339.22;20976549;28;20045;-62
2022/03/13 11:46:40;;;;;;;31.40;18.77;;;;;;;12.06;38.26;100326.34;20977216;28;20049;-62
2022/03/13 11:56:49;;;;;;;31.10;18.55;;;;;;;12.37;38.56;100311.66;20979017;28;20414;-63
2022/03/13 12:06:56;;;;;;;33.33;20.13;;;;;;;12.37;37.84;100296.75;20974856;28;20064;-62
2022/03/13 12:17:08;;;;;;;31.45;19.58;;;;;;;12.69;37.22;100280.16;20976584;28;20059;-63
2022/03/13 12:27:10;;;;;;;32.33;19.05;;;;;;;13.00;35.96;100259.19;20975832;28;20053;-63
2022/03/13 12:37:11;;;;;;;34.20;18.45;;;;;;;13.44;36.63;100249.19;20974696;28;20098;-62
2022/03/13 12:47:26;;;;;;;33.35;19.20;;;;;;;13.35;35.23;100229.28;20973763;28;20044;-63
2022/03/13 12:57:27;;;;;;;31.75;18.85;;;;;;;13.48;35.18;100229.78;20972779;28;20044;-62
2022/03/13 13:07:32;;;;;;;31.63;18.50;;;;;;;13.63;34.67;100222.31;20970515;28;20103;-62
2022/03/13 13:17:34;;;;;;;30.40;18.00;;;;;;;13.86;34.67;100210.16;20970854;28;20067;-63
2022/03/13 13:27:43;;;;;;;32.17;19.58;;;;;;;13.89;34.59;100206.53;20969970;28;20517;-61
2022/03/13 13:37:58;;;;;;;29.95;17.85;;;;;;;14.12;33.82;100188.22;20968417;28;20394;-62
2022/03/13 13:48:20;;;;;;;29.92;18.17;;;;;;;14.44;33.14;100181.00;20966473;28;20052;-62
2022/03/13 13:58:25;;;;;;;31.42;18.85;;;;;;;14.94;32.80;100156.38;20966514;28;20456;-63
2022/03/13 14:08:28;;;;;;;;;;;;;;;15.42;31.85;100156.28;20968725;28;20464;-63
2022/03/13 14:18:30;;;;;;;31.58;19.02;;;;;;;15.63;31.69;100155.47;20966119;28;19941;-62
2022/03/13 14:28:31;;;;;;;29.63;18.70;;;;;;;15.52;32.52;100152.38;20970454;28;20045;-63
2022/03/13 14:38:33;;;;;;;32.60;19.58;;;;;;;15.75;32.49;100147.97;20973040;28;20109;-63
2022/03/13 14:48:36;;;;;;;33.17;19.67;;;;;;;15.84;31.83;100143.16;20983825;28;20490;-63
2022/03/13 14:58:38;;;;;;;32.10;18.95;;;;;;;15.70;31.61;100139.38;20983590;28;20528;-63
2022/03/13 15:08:39;;;;;;;28.58;16.40;;;;;;;15.91;31.51;100141.16;20980640;28;20056;-63
2022/03/13 15:18:41;;;;;;;29.75;17.77;;;;;;;15.78;32.27;100139.94;20981219;28;20416;-63
2022/03/13 15:28:42;;;;;;;29.65;17.40;;;;;;;15.71;31.48;100120.81;20981186;28;20121;-62
2022/03/13 15:38:44;;;;;;;30.48;16.77;;;;;;;15.68;31.72;100120.97;20979090;28;20090;-62
2022/03/13 15:48:45;;;;;;;28.67;16.77;;;;;;;15.63;31.69;100133.47;20978687;28;20476;-63
2022/03/13 15:58:47;;;;;;;26.55;16.08;;;;;;;15.33;33.18;100135.53;20976595;28;20037;-63
2022/03/13 16:08:48;;;;;;;27.42;15.50;;;;;;;15.12;32.90;100126.69;20977188;28;20489;-63
2022/03/13 16:18:50;;;;;;;26.40;15.65;;;;;;;14.90;33.25;100137.22;20976613;28;20074;-62
2022/03/13 16:28:51;;;;;;;29.98;16.70;;;;;;;14.80;33.41;100126.16;20974904;28;20063;-63
2022/03/13 16:38:53;;;;;;;27.73;16.23;;;;;;;14.69;33.08;100127.47;20974638;28;20040;-63
2022/03/13 16:48:54;;;;;;;27.75;16.55;;;;;;;14.58;32.96;100126.06;20974403;28;20555;-63
2022/03/13 16:58:56;;;;;;;27.88;16.60;;;;;;;14.14;34.34;100121.50;20958163;28;20098;-63
2022/03/13 17:08:57;;;;;;;33.13;19.00;;;;;;;14.01;34.46;100127.19;20949165;28;20106;-63
2022/03/13 17:18:59;;;;;;;28.30;16.08;;;;;;;13.88;34.38;100128.50;20950577;28;20044;-62
2022/03/13 17:29:01;;;;;;;30.20;16.38;;;;;;;13.72;34.81;100127.31;20949037;28;20056;-63
2022/03/13 17:39:07;;;;;;;24.15;16.02;;;;;;;13.49;35.28;100136.78;20948522;28;20068;-63
2022/03/13 17:49:09;;;;;;;29.92;17.33;;;;;;;13.26;35.67;100145.41;20948456;28;20125;-63
2022/03/13 17:59:11;;;;;;;28.92;16.52;;;;;;;13.17;35.71;100150.06;20947135;28;20110;-63
2022/03/13 18:09:12;;;;;;;42.55;25.60;;;;;;;12.71;37.25;100161.94;20945029;28;20072;-63
2022/03/13 18:19:14;;;;;;;33.90;19.73;;;;;;;12.49;37.51;100167.75;20947310;28;20041;-63
2022/03/13 18:29:15;;;;;;;31.20;18.45;;;;;;;12.36;37.41;100174.25;20946141;28;20135;-63
2022/03/13 18:39:18;;;;;;;29.83;18.30;;;;;;;12.28;37.25;100181.47;20945235;28;20076;-62
2022/03/13 18:49:20;;;;;;;32.78;18.40;;;;;;;12.07;38.02;100186.38;20936370;28;20159;-63
2022/03/13 18:59:22;;;;;;;28.98;17.70;;;;;;;11.97;38.03;100203.22;20943461;28;20087;-63
2022/03/13 19:09:23;;;;;;;42.15;23.17;;;;;;;11.70;39.24;100222.25;20940573;28;20106;-62
2022/03/13 19:19:26;;;;;;;33.67;18.20;;;;;;;11.49;40.19;100229.66;20942489;28;20082;-63
2022/03/13 19:29:28;;;;;;;43.20;28.77;;;;;;;11.35;40.71;100231.72;20955717;28;20045;-63
2022/03/13 19:39:31;;;;;;;36.15;21.00;;;;;;;11.22;41.05;100248.63;20955900;28;20088;-63
2022/03/13 19:49:34;;;;;;;35.55;21.40;;;;;;;11.21;40.70;100250.41;20956800;28;20123;-63
2022/03/13 19:59:36;;;;;;;34.30;20.63;;;;;;;11.25;40.76;100264.28;20955779;28;20557;-62
2022/03/13 20:09:39;;;;;;;34.90;21.15;;;;;;;11.33;39.80;100275.47;20955407;28;20092;-63
2022/03/13 20:19:43;;;;;;;31.83;20.17;;;;;;;11.28;39.38;100293.06;20954913;28;20102;-62
2022/03/13 20:29:50;;;;;;;34.00;21.55;;;;;;;11.19;40.05;100311.59;20954218;28;20504;-62
2022/03/13 20:39:52;;;;;;;35.47;19.98;;;;;;;11.05;40.32;100315.31;20951266;28;20133;-62
2022/03/13 20:49:53;;;;;;;36.65;21.52;;;;;;;11.09;40.18;100328.38;20951144;28;20115;-63
2022/03/13 20:59:55;;;;;;;34.83;20.13;;;;;;;11.00;40.51;100327.66;20956195;28;20137;-63
2022/03/13 21:09:58;;;;;;;32.65;19.98;;;;;;;10.84;41.17;100339.31;20970969;28;20047;-63
2022/03/13 21:20:01;;;;;;;30.15;18.92;;;;;;;10.84;40.50;100334.06;20971563;28;20536;-62
2022/03/13 21:30:11;;;;;;;32.55;19.67;;;;;;;10.89;40.14;100336.63;20970004;28;20086;-64
2022/03/13 21:40:13;;;;;;;29.15;18.77;;;;;;;10.87;39.90;100327.91;20969660;28;20086;-65
2022/03/13 21:50:15;;;;;;;30.90;18.70;;;;;;;10.72;40.40;100344.75;20967931;28;20508;-65
2022/03/13 22:00:17;;;;;;;34.95;19.63;;;;;;;10.68;40.63;100358.78;20968315;28;20405;-65
2022/03/13 22:10:19;;;;;;;36.05;19.42;;;;;;;10.59;40.89;100358.94;20966695;28;20040;-64
2022/03/13 22:20:21;;;;;;;31.35;19.00;;;;;;;10.45;41.20;100356.56;20965862;28;20052;-64
2022/03/13 22:30:23;;;;;;;37.10;21.13;;;;;;;10.34;41.76;100359.31;20967411;28;20041;-65
2022/03/13 22:40:25;;;;;;;32.30;18.25;;;;;;;10.28;41.04;100389.06;20965883;28;20098;-65
2022/03/13 22:51:01;;;;;;;27.33;17.73;;;;;;;9.93;43.79;100405.25;20964986;28;20507;-64
2022/03/13 23:00:50;;;;;;;29.73;18.35;;;;;;;9.74;45.26;100440.34;20971426;28;20086;-64
2022/03/13 23:10:54;;;;;;;30.55;18.48;;;;;;;9.79;44.59;100456.84;20984087;28;20712;-64
2022/03/13 23:20:57;;;;;;;31.33;18.10;;;;;;;9.83;43.64;100473.38;20984027;28;20047;-65
2022/03/13 23:30:59;;;;;;;32.42;19.63;;;;;;;9.81;43.66;100483.81;20982860;28;20097;-64
2022/03/13 23:41:03;;;;;;;33.67;17.30;;;;;;;9.84;44.12;100482.94;20982899;28;20039;-64
2022/03/13 23:51:05;;;;;;;30.73;16.77;;;;;;;9.75;44.85;100521.38;20981565;28;20044;-64
